createdAt,value
2018-06-09T00:01:50.112Z,100512.33
2018-06-09T00:04:18.254Z,100514.30
2018-06-09T00:06:46.455Z,100512.11
2018-06-09T00:09:14.660Z,100515.50
2018-06-09T00:11:42.879Z,100516.13
2018-06-09T00:14:17.955Z,100519.48
2018-06-09T00:16:46.157Z,100523.16
2018-06-09T00:19:14.412Z,100519.59
2018-06-09T00:21:42.598Z,100519.94
2018-06-09T00:24:10.864Z,100521.10
2018-06-09T00:26:39.166Z,100518.16
2018-06-09T00:29:07.388Z,100524.27
2018-06-09T00:31:35.908Z,100520.75
2018-06-09T00:34:04.136Z,100527.40
2018-06-09T00:36:32.325Z,100531.83
2018-06-09T00:39:00.530Z,100534.64
2018-06-09T00:41:28.899Z,100535.50
2018-06-09T00:43:57.073Z,100541.27
2018-06-09T00:46:25.323Z,100547.30
2018-06-09T00:48:53.468Z,100534.64
2018-06-09T00:51:21.651Z,100538.50
2018-06-09T00:53:49.808Z,100546.02
2018-06-09T00:56:29.347Z,100539.45
2018-06-09T00:58:57.565Z,100540.03
2018-06-09T01:01:25.788Z,100544.50
2018-06-09T01:03:53.959Z,100539.28
2018-06-09T01:06:22.149Z,100546.84
2018-06-09T01:08:50.428Z,100548.91
2018-06-09T01:11:18.668Z,100547.62
2018-06-09T01:13:46.924Z,100550.42
2018-06-09T01:16:15.140Z,100547.42
2018-06-09T01:18:43.344Z,100544.15
2018-06-09T01:21:11.590Z,100551.61
2018-06-09T01:23:39.810Z,100552.76
2018-06-09T01:26:08.013Z,100555.31
2018-06-09T01:28:36.261Z,100559.78
2018-06-09T01:31:04.459Z,100556.75
2018-06-09T01:33:33.208Z,100559.78
2018-06-09T01:36:01.377Z,100559.78
2018-06-09T01:38:29.605Z,100557.59
2018-06-09T01:40:58.114Z,100560.94
2018-06-09T01:43:26.347Z,100557.41
2018-06-09T01:45:54.543Z,100561.63
2018-06-09T01:48:22.742Z,100555.08
2018-06-09T01:50:51.027Z,100556.23
2018-06-09T01:53:19.214Z,100556.80
2018-06-09T01:55:47.461Z,100562.40
2018-06-09T01:58:15.797Z,100557.77
2018-06-09T02:00:43.995Z,100565.52
2018-06-09T02:03:12.214Z,100561.38
2018-06-09T02:05:40.392Z,100557.55
2018-06-09T02:08:08.615Z,100556.16
2018-06-09T02:10:37.047Z,100550.66
2018-06-09T02:13:05.444Z,100539.69
2018-06-09T02:15:33.701Z,100552.93
2018-06-09T02:18:01.847Z,100545.80
2018-06-09T02:20:30.032Z,100549.41
2018-06-09T02:22:58.247Z,100549.37
2018-06-09T02:25:26.460Z,100549.93
2018-06-09T02:27:54.653Z,100544.42
2018-06-09T02:30:22.871Z,100548.28
2018-06-09T02:32:51.050Z,100549.70
2018-06-09T02:35:19.282Z,100540.66
2018-06-09T02:37:47.590Z,100539.02
2018-06-09T02:40:15.848Z,100539.85
2018-06-09T02:42:43.988Z,100537.09
2018-06-09T02:45:12.444Z,100531.84
2018-06-09T02:47:41.015Z,100534.67
2018-06-09T02:50:09.420Z,100522.08
2018-06-09T02:52:37.968Z,100524.08
2018-06-09T02:55:06.173Z,100526.58
2018-06-09T02:57:34.383Z,100518.00
2018-06-09T03:00:02.591Z,100518.89
2018-06-09T03:02:30.820Z,100510.39
2018-06-09T03:04:58.984Z,100520.88
2018-06-09T03:07:27.245Z,100509.42
2018-06-09T03:09:55.521Z,100508.37
2018-06-09T03:12:23.733Z,100510.63
2018-06-09T03:14:51.902Z,100510.55
2018-06-09T03:17:20.133Z,100510.19
2018-06-09T03:19:48.285Z,100509.79
2018-06-09T03:22:16.512Z,100502.33
2018-06-09T03:24:44.684Z,100502.28
2018-06-09T03:27:12.868Z,100502.49
2018-06-09T03:29:41.086Z,100500.26
2018-06-09T03:32:09.372Z,100501.03
2018-06-09T03:34:37.554Z,100502.68
2018-06-09T03:37:05.763Z,100506.66
2018-06-09T03:39:33.966Z,100501.44
2018-06-09T03:42:02.472Z,100505.94
2018-06-09T03:44:30.681Z,100504.20
2018-06-09T03:46:58.932Z,100507.14
2018-06-09T03:49:27.155Z,100495.80
2018-06-09T03:51:55.407Z,100497.13
2018-06-09T03:54:23.659Z,100504.49
2018-06-09T03:56:52.230Z,100505.45
2018-06-09T03:59:20.469Z,100507.50
2018-06-09T04:01:48.723Z,100507.34
2018-06-09T04:04:16.941Z,100521.01
2018-06-09T04:06:45.114Z,100520.67
2018-06-09T04:09:13.337Z,100523.47
2018-06-09T04:11:41.539Z,100524.18
2018-06-09T04:14:10.064Z,100522.70
2018-06-09T04:16:38.356Z,100521.47
2018-06-09T04:19:06.563Z,100533.21
2018-06-09T04:21:34.755Z,100536.75
2018-06-09T04:24:03.144Z,100530.17
2018-06-09T04:26:31.359Z,100543.88
2018-06-09T04:28:59.668Z,100542.77
2018-06-09T04:31:27.909Z,100547.11
2018-06-09T04:33:56.447Z,100546.67
2018-06-09T04:36:24.667Z,100544.56
2018-06-09T04:38:52.948Z,100543.05
2018-06-09T04:41:21.144Z,100538.58
2018-06-09T04:43:49.348Z,100535.20
2018-06-09T04:46:17.503Z,100535.66
2018-06-09T04:48:45.711Z,100528.34
2018-06-09T04:51:13.925Z,100529.86
2018-06-09T04:53:42.123Z,100529.36
2018-06-09T04:56:10.313Z,100542.16
2018-06-09T04:58:38.508Z,100542.48
2018-06-09T05:01:06.747Z,100542.48
2018-06-09T05:03:34.915Z,100540.13
2018-06-09T05:06:03.182Z,100555.20
2018-06-09T05:08:31.370Z,100554.70
2018-06-09T05:10:59.997Z,100560.25
2018-06-09T05:13:28.214Z,100554.25
2018-06-09T05:15:56.729Z,100551.97
2018-06-09T05:18:24.936Z,100559.31
2018-06-09T05:20:53.455Z,100548.82
2018-06-09T05:23:21.946Z,100548.84
2018-06-09T05:25:50.187Z,100547.06
2018-06-09T05:28:18.416Z,100550.66
2018-06-09T05:30:46.706Z,100553.52
2018-06-09T05:33:14.945Z,100553.42
2018-06-09T05:35:43.161Z,100558.22
2018-06-09T05:38:11.335Z,100554.29
2018-06-09T05:40:39.591Z,100558.24
2018-06-09T05:43:07.805Z,100566.25
2018-06-09T05:45:36.291Z,100573.96
2018-06-09T05:48:11.108Z,100569.80
2018-06-09T05:50:39.317Z,100569.02
2018-06-09T05:53:07.581Z,100563.39
2018-06-09T05:55:35.855Z,100564.22
2018-06-09T05:58:04.153Z,100562.22
2018-06-09T06:00:32.796Z,100564.36
2018-06-09T06:03:00.991Z,100565.23
2018-06-09T06:05:29.210Z,100563.27
2018-06-09T06:07:57.440Z,100563.59
2018-06-09T06:10:25.697Z,100566.81
2018-06-09T06:12:53.964Z,100575.97
2018-06-09T06:15:22.425Z,100568.42
2018-06-09T06:17:50.649Z,100564.17
2018-06-09T06:20:18.880Z,100568.38
2018-06-09T06:22:47.137Z,100571.65
2018-06-09T06:25:15.360Z,100569.80
2018-06-09T06:27:43.870Z,100574.81
2018-06-09T06:30:12.117Z,100565.52
2018-06-09T06:32:40.816Z,100572.42
2018-06-09T06:35:09.376Z,100575.45
2018-06-09T06:37:37.635Z,100576.78
2018-06-09T06:40:05.881Z,100582.34
2018-06-09T06:42:34.181Z,100584.48
2018-06-09T06:45:02.793Z,100585.64
2018-06-09T06:47:31.023Z,100585.05
2018-06-09T06:49:59.321Z,100589.81
2018-06-09T06:52:27.544Z,100586.72
2018-06-09T06:54:55.742Z,100592.87
2018-06-09T06:57:24.066Z,100590.73
2018-06-09T06:59:52.261Z,100599.85
2018-06-09T07:02:20.447Z,100602.46
2018-06-09T07:04:48.651Z,100598.91
2018-06-09T07:07:17.183Z,100599.91
2018-06-09T07:09:45.502Z,100606.86
2018-06-09T07:12:13.739Z,100593.00
2018-06-09T07:14:41.983Z,100586.54
2018-06-09T07:17:10.238Z,100586.81
2018-06-09T07:19:38.478Z,100588.00
2018-06-09T07:22:06.804Z,100592.64
2018-06-09T07:24:35.029Z,100587.76
2018-06-09T07:27:03.201Z,100591.50
2018-06-09T07:29:31.777Z,100593.92
2018-06-09T07:32:00.335Z,100591.95
2018-06-09T07:34:28.492Z,100587.09
2018-06-09T07:36:56.773Z,100588.81
2018-06-09T07:39:25.083Z,100588.70
2018-06-09T07:41:53.297Z,100591.58
2018-06-09T07:44:21.788Z,100585.84
2018-06-09T07:46:50.056Z,100588.58
2018-06-09T07:49:18.256Z,100589.14
2018-06-09T07:51:46.494Z,100582.84
2018-06-09T07:54:14.690Z,100591.98
2018-06-09T07:56:42.852Z,100586.25
2018-06-09T07:59:11.456Z,100587.33
2018-06-09T08:01:39.699Z,100584.79
2018-06-09T08:04:07.928Z,100594.25
2018-06-09T08:06:36.122Z,100587.03
2018-06-09T08:09:05.649Z,100593.75
2018-06-09T08:11:33.982Z,100588.46
2018-06-09T08:14:02.271Z,100586.63
2018-06-09T08:16:30.492Z,100586.37
2018-06-09T08:18:58.672Z,100589.98
2018-06-09T08:21:26.902Z,100582.20
2018-06-09T08:23:55.101Z,100583.70
2018-06-09T08:26:23.454Z,100577.89
2018-06-09T08:28:51.635Z,100580.45
2018-06-09T08:31:19.949Z,100586.25
2018-06-09T08:33:48.160Z,100581.59
2018-06-09T08:36:16.484Z,100579.55
2018-06-09T08:38:44.648Z,100579.66
2018-06-09T08:41:12.863Z,100578.68
2018-06-09T08:43:41.103Z,100582.20
2018-06-09T08:46:09.332Z,100587.17
2018-06-09T08:48:37.607Z,100582.85
2018-06-09T08:51:05.864Z,100580.04
2018-06-09T08:53:34.148Z,100580.03
2018-06-09T08:56:02.317Z,100584.83
2018-06-09T08:58:30.504Z,100577.36
2018-06-09T09:00:58.956Z,100575.32
2018-06-09T09:03:27.182Z,100577.23
2018-06-09T09:05:55.420Z,100584.08
2018-06-09T09:08:23.579Z,100585.30
2018-06-09T09:10:51.885Z,100583.14
2018-06-09T09:13:20.154Z,100588.38
2018-06-09T09:15:48.363Z,100586.37
2018-06-09T09:18:16.594Z,100579.37
2018-06-09T09:20:45.298Z,100584.97
2018-06-09T09:23:13.526Z,100578.86
2018-06-09T09:25:41.844Z,100584.92
2018-06-09T09:28:10.052Z,100583.42
2018-06-09T09:30:38.306Z,100579.81
2018-06-09T09:33:06.583Z,100582.52
2018-06-09T09:35:34.793Z,100586.06
2018-06-09T09:38:03.047Z,100585.85
2018-06-09T09:40:31.238Z,100577.95
2018-06-09T09:42:59.423Z,100584.95
2018-06-09T09:45:27.669Z,100585.50
2018-06-09T09:47:56.048Z,100582.62
2018-06-09T09:50:24.294Z,100573.06
2018-06-09T09:52:52.561Z,100577.67
2018-06-09T09:55:20.875Z,100582.02
2018-06-09T09:58:00.774Z,100586.59
2018-06-09T10:00:34.445Z,100583.11
2018-06-09T10:03:02.648Z,100579.64
2018-06-09T10:05:30.832Z,100580.61
2018-06-09T10:07:59.057Z,100578.78
2018-06-09T10:10:27.305Z,100583.45
2018-06-09T10:12:55.486Z,100578.39
2018-06-09T10:15:23.672Z,100575.66
2018-06-09T10:17:51.898Z,100576.14
2018-06-09T10:20:20.104Z,100568.55
2018-06-09T10:22:48.267Z,100564.66
2018-06-09T10:25:16.456Z,100564.81
2018-06-09T10:27:44.713Z,100562.08
2018-06-09T10:30:12.993Z,100555.00
2018-06-09T10:32:41.211Z,100553.00
2018-06-09T10:35:09.427Z,100547.28
2018-06-09T10:37:37.641Z,100541.27
2018-06-09T10:40:06.232Z,100541.22
2018-06-09T10:42:34.445Z,100543.56
2018-06-09T10:45:03.107Z,100540.05
2018-06-09T10:47:31.352Z,100541.97
2018-06-09T10:49:59.502Z,100546.48
2018-06-09T10:52:27.776Z,100546.75
2018-06-09T10:54:56.376Z,100546.84
2018-06-09T10:57:24.713Z,100544.59
2018-06-09T10:59:52.946Z,100538.40
2018-06-09T11:02:21.124Z,100546.45
2018-06-09T11:04:49.353Z,100538.74
2018-06-09T11:07:17.520Z,100541.08
2018-06-09T11:09:45.745Z,100541.42
2018-06-09T11:12:13.968Z,100540.12
2018-06-09T11:14:42.192Z,100542.62
2018-06-09T11:17:10.438Z,100539.59
2018-06-09T11:19:38.673Z,100533.89
2018-06-09T11:22:06.879Z,100533.60
2018-06-09T11:24:35.089Z,100530.08
2018-06-09T11:27:03.255Z,100530.42
2018-06-09T11:29:31.536Z,100536.48
2018-06-09T11:32:00.181Z,100536.31
2018-06-09T11:34:28.338Z,100527.52
2018-06-09T11:36:56.583Z,100530.52
2018-06-09T11:39:24.878Z,100518.59
2018-06-09T11:41:53.077Z,100522.83
2018-06-09T11:44:21.247Z,100522.25
2018-06-09T11:46:49.503Z,100512.30
2018-06-09T11:49:17.663Z,100518.46
2018-06-09T11:51:45.811Z,100515.62
2018-06-09T11:54:14.024Z,100512.27
2018-06-09T11:56:42.256Z,100508.45
2018-06-09T11:59:10.897Z,100500.50
2018-06-09T12:01:39.128Z,100497.05
2018-06-09T12:04:07.754Z,100493.13
2018-06-09T12:06:35.948Z,100489.62
2018-06-09T12:09:05.950Z,100489.97
2018-06-09T12:11:34.132Z,100482.52
2018-06-09T12:14:02.423Z,100478.10
2018-06-09T12:16:31.011Z,100483.56
2018-06-09T12:18:59.190Z,100477.42
2018-06-09T12:21:27.446Z,100489.33
2018-06-09T12:23:55.659Z,100483.91
2018-06-09T12:26:23.881Z,100480.81
2018-06-09T12:28:52.110Z,100479.55
2018-06-09T12:31:20.308Z,100478.90
2018-06-09T12:33:48.468Z,100476.67
2018-06-09T12:36:17.009Z,100481.66
2018-06-09T12:38:45.192Z,100477.98
2018-06-09T12:41:13.404Z,100484.77
2018-06-09T12:43:41.624Z,100477.87
2018-06-09T12:46:09.867Z,100479.05
2018-06-09T12:48:38.548Z,100481.77
2018-06-09T12:51:06.679Z,100480.34
2018-06-09T12:53:34.904Z,100473.34
2018-06-09T12:56:03.134Z,100468.94
2018-06-09T12:58:31.365Z,100468.50
2018-06-09T13:00:59.950Z,100469.06
2018-06-09T13:03:28.115Z,100462.59
2018-06-09T13:05:56.337Z,100456.69
2018-06-09T13:08:24.527Z,100456.91
2018-06-09T13:10:52.695Z,100451.90
2018-06-09T13:13:20.937Z,100442.11
2018-06-09T13:15:49.181Z,100447.27
2018-06-09T13:18:17.358Z,100443.38
2018-06-09T13:20:45.921Z,100436.77
2018-06-09T13:23:14.164Z,100438.59
2018-06-09T13:25:42.413Z,100445.22
2018-06-09T13:28:10.673Z,100440.30
2018-06-09T13:30:38.977Z,100437.80
2018-06-09T13:33:07.243Z,100436.33
2018-06-09T13:35:35.467Z,100436.22
2018-06-09T13:38:04.033Z,100429.50
2018-06-09T13:40:32.217Z,100431.27
2018-06-09T13:43:00.444Z,100432.35
2018-06-09T13:45:28.659Z,100426.73
2018-06-09T13:47:57.283Z,100424.00
2018-06-09T13:50:25.520Z,100428.92
2018-06-09T13:52:53.748Z,100416.41
2018-06-09T13:55:21.927Z,100414.45
2018-06-09T13:57:50.123Z,100418.01
2018-06-09T14:00:18.660Z,100414.66
2018-06-09T14:02:46.936Z,100411.03
2018-06-09T14:05:15.077Z,100413.71
2018-06-09T14:07:43.612Z,100416.22
2018-06-09T14:10:12.284Z,100416.41
2018-06-09T14:12:40.553Z,100410.61
2018-06-09T14:15:08.780Z,100407.28
2018-06-09T14:17:37.160Z,100414.98
2018-06-09T14:20:05.474Z,100401.57
2018-06-09T14:22:33.718Z,100404.80
2018-06-09T14:25:01.938Z,100397.37
2018-06-09T14:27:31.089Z,100396.75
2018-06-09T14:29:59.337Z,100399.68
2018-06-09T14:32:27.569Z,100393.77
2018-06-09T14:34:55.742Z,100397.55
2018-06-09T14:37:23.969Z,100393.44
2018-06-09T14:39:52.135Z,100387.52
2018-06-09T14:42:20.365Z,100385.12
2018-06-09T14:44:48.617Z,100379.34
2018-06-09T14:47:16.807Z,100377.75
2018-06-09T14:49:45.020Z,100381.52
2018-06-09T14:52:13.223Z,100384.39
2018-06-09T14:54:41.515Z,100386.38
2018-06-09T14:57:09.742Z,100387.13
2018-06-09T14:59:37.988Z,100384.73
2018-06-09T15:02:06.199Z,100393.00
2018-06-09T15:04:34.370Z,100397.48
2018-06-09T15:07:02.876Z,100390.77
2018-06-09T15:09:31.113Z,100389.50
2018-06-09T15:11:59.325Z,100389.05
2018-06-09T15:14:27.600Z,100390.51
2018-06-09T15:16:55.922Z,100393.23
2018-06-09T15:19:24.144Z,100388.53
2018-06-09T15:21:52.414Z,100384.97
2018-06-09T15:24:20.703Z,100378.25
2018-06-09T15:26:48.930Z,100380.59
2018-06-09T15:29:17.372Z,100381.86
2018-06-09T15:31:45.612Z,100381.02
2018-06-09T15:34:13.791Z,100380.96
2018-06-09T15:36:41.977Z,100394.94
2018-06-09T15:39:10.272Z,100389.06
2018-06-09T15:41:38.518Z,100385.13
2018-06-09T15:44:06.817Z,100393.64
2018-06-09T15:46:35.330Z,100387.81
2018-06-09T15:49:03.583Z,100384.38
2018-06-09T15:51:31.832Z,100379.98
2018-06-09T15:54:00.044Z,100374.64
2018-06-09T15:56:28.282Z,100368.07
2018-06-09T15:58:56.481Z,100375.91
2018-06-09T16:01:24.680Z,100383.43
2018-06-09T16:03:52.884Z,100383.54
2018-06-09T16:06:21.504Z,100380.39
2018-06-09T16:08:50.082Z,100385.66
2018-06-09T16:11:18.543Z,100390.89
2018-06-09T16:13:46.739Z,100392.69
2018-06-09T16:16:14.947Z,100383.95
2018-06-09T16:18:43.134Z,100391.70
2018-06-09T16:21:11.369Z,100383.70
2018-06-09T16:23:39.592Z,100376.31
2018-06-09T16:26:07.884Z,100378.33
2018-06-09T16:28:36.089Z,100374.83
2018-06-09T16:31:04.337Z,100374.39
2018-06-09T16:33:32.890Z,100376.77
2018-06-09T16:36:01.113Z,100378.84
2018-06-09T16:38:29.366Z,100382.53
2018-06-09T16:40:57.603Z,100375.34
2018-06-09T16:43:25.825Z,100385.56
2018-06-09T16:45:53.992Z,100379.28
2018-06-09T16:48:22.210Z,100385.66
2018-06-09T16:50:51.072Z,100383.78
2018-06-09T16:53:19.306Z,100386.83
2018-06-09T16:55:47.549Z,100381.10
2018-06-09T16:58:16.126Z,100385.39
2018-06-09T17:00:44.708Z,100387.48
2018-06-09T17:03:12.939Z,100378.50
2018-06-09T17:05:41.176Z,100390.30
2018-06-09T17:08:09.491Z,100383.02
2018-06-09T17:10:37.704Z,100395.09
2018-06-09T17:13:05.917Z,100400.84
2018-06-09T17:15:34.099Z,100392.13
2018-06-09T17:18:02.669Z,100395.04
2018-06-09T17:20:30.864Z,100391.06
2018-06-09T17:22:59.083Z,100393.98
2018-06-09T17:25:27.317Z,100399.00
2018-06-09T17:27:55.550Z,100396.27
2018-06-09T17:30:23.737Z,100394.39
2018-06-09T17:32:51.972Z,100387.67
2018-06-09T17:35:20.170Z,100395.20
2018-06-09T17:37:48.437Z,100392.14
2018-06-09T17:40:16.717Z,100391.91
2018-06-09T17:42:44.939Z,100393.94
2018-06-09T17:45:13.145Z,100393.89
2018-06-09T17:47:41.370Z,100390.38
2018-06-09T17:50:09.598Z,100390.53
2018-06-09T17:52:37.824Z,100390.53
2018-06-09T17:55:06.192Z,100390.05
2018-06-09T17:57:34.330Z,100390.76
2018-06-09T18:00:02.589Z,100398.47
2018-06-09T18:02:30.864Z,100406.20
2018-06-09T18:04:59.130Z,100414.00
2018-06-09T18:07:27.385Z,100412.69
2018-06-09T18:09:55.565Z,100414.28
2018-06-09T18:12:23.765Z,100404.11
2018-06-09T18:14:51.928Z,100409.37
2018-06-09T18:17:20.258Z,100405.14
2018-06-09T18:19:48.789Z,100405.77
2018-06-09T18:22:17.054Z,100406.05
2018-06-09T18:24:45.363Z,100407.27
2018-06-09T18:27:13.568Z,100409.20
2018-06-09T18:29:41.835Z,100398.31
2018-06-09T18:32:10.040Z,100408.56
2018-06-09T18:34:38.321Z,100410.70
2018-06-09T18:37:06.573Z,100415.71
2018-06-09T18:39:34.811Z,100416.52
2018-06-09T18:42:02.987Z,100412.67
2018-06-09T18:44:31.241Z,100410.95
2018-06-09T18:46:59.796Z,100419.06
2018-06-09T18:49:28.349Z,100414.90
2018-06-09T18:51:56.541Z,100416.16
2018-06-09T18:54:24.739Z,100413.74
2018-06-09T18:56:52.970Z,100419.29
2018-06-09T18:59:21.430Z,100416.16
2018-06-09T19:01:49.709Z,100426.34
2018-06-09T19:04:17.925Z,100429.12
2018-06-09T19:06:46.122Z,100425.95
2018-06-09T19:09:14.356Z,100427.33
2018-06-09T19:11:42.868Z,100431.50
2018-06-09T19:14:11.076Z,100431.00
2018-06-09T19:16:39.346Z,100441.67
2018-06-09T19:19:07.490Z,100445.26
2018-06-09T19:21:36.155Z,100442.92
2018-06-09T19:24:04.404Z,100447.78
2018-06-09T19:26:32.640Z,100451.48
2018-06-09T19:29:00.808Z,100453.09
2018-06-09T19:31:28.960Z,100456.45
2018-06-09T19:33:57.189Z,100458.50
2018-06-09T19:36:25.436Z,100467.41
2018-06-09T19:38:53.608Z,100466.20
2018-06-09T19:41:21.846Z,100467.25
2018-06-09T19:43:50.022Z,100470.47
2018-06-09T19:46:18.205Z,100470.39
2018-06-09T19:48:46.449Z,100466.43
2018-06-09T19:51:14.701Z,100462.14
2018-06-09T19:53:43.013Z,100461.52
2018-06-09T19:56:11.417Z,100463.84
2018-06-09T19:58:39.874Z,100460.59
2018-06-09T20:01:08.163Z,100461.70
2018-06-09T20:03:36.346Z,100459.83
2018-06-09T20:06:04.598Z,100462.55
2018-06-09T20:08:32.852Z,100462.33
2018-06-09T20:11:01.036Z,100465.20
2018-06-09T20:13:29.255Z,100459.50
2018-06-09T20:15:57.715Z,100467.34
2018-06-09T20:18:25.953Z,100470.58
2018-06-09T20:20:54.171Z,100471.91
2018-06-09T20:23:22.432Z,100466.71
2018-06-09T20:25:50.782Z,100470.95
2018-06-09T20:28:20.424Z,100469.10
2018-06-09T20:30:48.735Z,100470.91
2018-06-09T20:33:17.436Z,100470.72
2018-06-09T20:35:45.769Z,100465.05
2018-06-09T20:38:14.233Z,100465.27
2018-06-09T20:40:42.598Z,100461.69
2018-06-09T20:43:11.678Z,100458.69
2018-06-09T20:45:39.838Z,100462.75
2018-06-09T20:48:08.160Z,100474.27
2018-06-09T20:50:36.748Z,100471.91
2018-06-09T20:53:05.414Z,100469.91
2018-06-09T20:55:34.210Z,100471.48
2018-06-09T20:58:02.541Z,100474.68
2018-06-09T21:00:30.858Z,100476.06
2018-06-09T21:02:59.102Z,100481.62
2018-06-09T21:05:27.337Z,100471.59
2018-06-09T21:07:56.191Z,100474.10
2018-06-09T21:10:24.440Z,100471.68
2018-06-09T21:12:52.699Z,100472.91
2018-06-09T21:15:20.971Z,100473.48
2018-06-09T21:17:49.242Z,100479.12
2018-06-09T21:20:17.476Z,100477.02
2018-06-09T21:22:45.685Z,100472.70
2018-06-09T21:25:13.944Z,100467.59
2018-06-09T21:28:47.303Z,100467.75
2018-06-09T21:31:17.535Z,100465.51
2018-06-09T21:34:02.563Z,100464.27
2018-06-09T21:36:35.345Z,100462.39
2018-06-09T21:39:10.585Z,100463.68
2018-06-09T21:41:45.231Z,100464.33
2018-06-09T21:44:15.002Z,100465.19
2018-06-09T21:46:48.654Z,100460.38
2018-06-09T21:49:17.589Z,100457.74
2018-06-09T21:51:45.809Z,100462.80
2018-06-09T21:54:14.076Z,100464.05
2018-06-09T21:56:42.339Z,100458.92
2018-06-09T21:59:10.542Z,100454.28
2018-06-09T22:01:38.812Z,100457.95
2018-06-09T22:04:07.033Z,100458.88
2018-06-09T22:06:35.232Z,100460.27
2018-06-09T22:09:04.296Z,100453.03
2018-06-09T22:11:32.534Z,100452.33
2018-06-09T22:14:00.793Z,100450.12
2018-06-09T22:16:28.965Z,100460.31
2018-06-09T22:18:57.141Z,100461.44
2018-06-09T22:21:25.338Z,100460.05
2018-06-09T22:23:53.628Z,100462.27
2018-06-09T22:26:21.825Z,100467.06
2018-06-09T22:28:50.076Z,100464.73
2018-06-09T22:31:18.301Z,100466.27
2018-06-09T22:33:46.480Z,100471.17
2018-06-09T22:36:14.739Z,100471.03
2018-06-09T22:38:42.913Z,100466.95
2018-06-09T22:41:11.221Z,100461.27
2018-06-09T22:43:39.477Z,100457.28
2018-06-09T22:46:07.735Z,100458.51
2018-06-09T22:48:35.959Z,100450.59
2018-06-09T22:51:04.181Z,100452.61
2018-06-09T22:53:32.798Z,100449.09
2018-06-09T22:56:01.002Z,100446.40
2018-06-09T22:58:29.307Z,100450.89
2018-06-09T23:00:58.843Z,100453.33
2018-06-09T23:03:27.077Z,100452.34
2018-06-09T23:05:55.364Z,100449.58
2018-06-09T23:08:23.546Z,100449.41
2018-06-09T23:10:51.821Z,100450.64
2018-06-09T23:13:20.053Z,100453.23
2018-06-09T23:15:48.311Z,100445.92
2018-06-09T23:18:16.526Z,100436.70
2018-06-09T23:20:44.700Z,100439.63
2018-06-09T23:23:12.929Z,100436.77
2018-06-09T23:25:41.192Z,100433.77
2018-06-09T23:28:09.590Z,100439.11
2018-06-09T23:30:38.228Z,100437.27
2018-06-09T23:33:06.501Z,100442.80
2018-06-09T23:35:34.733Z,100435.61
2018-06-09T23:38:02.964Z,100436.61
2018-06-09T23:40:31.241Z,100434.00
2018-06-09T23:42:59.473Z,100422.98
2018-06-09T23:45:27.690Z,100422.56
2018-06-09T23:47:55.892Z,100426.28
2018-06-09T23:50:24.102Z,100423.29
2018-06-09T23:52:52.314Z,100420.52
2018-06-09T23:55:20.628Z,100411.80
2018-06-09T23:57:48.925Z,100403.59
